sensor_id;sensor_type;location;lat;lon;timestamp;P1;durP1;ratioP1;P2;durP2;ratioP2
8421;SDS011;4248;48.196;10.924;2024-02-16T00:00:24;10.20;;;5.07;;
8421;SDS011;4248;48.196;10.924;2024-02-16T00:02:50;8.37;;;5.27;;
8421;SDS011;4248;48.196;10.924;2024-02-16T00:05:16;7.43;;;4.33;;
8421;SDS011;4248;48.196;10.924;2024-02-16T00:07:42;5.77;;;3.40;;
8421;SDS011;4248;48.196;10.924;2024-02-16T00:10:08;4.60;;;3.10;;
8421;SDS011;4248;48.196;10.924;2024-02-16T00:12:34;7.67;;;4.03;;
8421;SDS011;4248;48.196;10.924;2024-02-16T00:15:00;6.40;;;4.13;;
8421;SDS011;4248;48.196;10.924;2024-02-16T00:17:26;6.00;;;3.90;;
8421;SDS011;4248;48.196;10.924;2024-02-16T00:19:53;8.30;;;4.70;;
8421;SDS011;4248;48.196;10.924;2024-02-16T00:22:22;6.60;;;4.40;;
8421;SDS011;4248;48.196;10.924;2024-02-16T00:24:48;6.80;;;4.63;;
8421;SDS011;4248;48.196;10.924;2024-02-16T00:27:14;8.50;;;5.00;;
8421;SDS011;4248;48.196;10.924;2024-02-16T00:29:40;7.70;;;4.57;;
8421;SDS011;4248;48.196;10.924;2024-02-16T00:32:06;9.67;;;4.20;;
8421;SDS011;4248;48.196;10.924;2024-02-16T00:34:32;9.40;;;4.37;;
8421;SDS011;4248;48.196;10.924;2024-02-16T00:36:59;10.07;;;4.60;;
8421;SDS011;4248;48.196;10.924;2024-02-16T00:39:25;12.97;;;6.10;;
8421;SDS011;4248;48.196;10.924;2024-02-16T00:41:50;11.07;;;5.37;;
8421;SDS011;4248;48.196;10.924;2024-02-16T00:44:16;11.20;;;6.50;;
8421;SDS011;4248;48.196;10.924;2024-02-16T00:46:42;25.03;;;11.93;;
8421;SDS011;4248;48.196;10.924;2024-02-16T00:49:11;17.57;;;8.73;;
8421;SDS011;4248;48.196;10.924;2024-02-16T00:51:37;16.63;;;7.90;;
8421;SDS011;4248;48.196;10.924;2024-02-16T00:54:03;17.30;;;8.80;;
8421;SDS011;4248;48.196;10.924;2024-02-16T00:56:29;17.13;;;8.13;;
8421;SDS011;4248;48.196;10.924;2024-02-16T00:58:55;14.70;;;6.73;;
8421;SDS011;4248;48.196;10.924;2024-02-16T01:01:21;15.90;;;6.87;;
8421;SDS011;4248;48.196;10.924;2024-02-16T01:03:47;12.57;;;6.30;;
8421;SDS011;4248;48.196;10.924;2024-02-16T01:06:13;14.53;;;6.83;;
8421;SDS011;4248;48.196;10.924;2024-02-16T01:08:40;8.30;;;5.40;;
8421;SDS011;4248;48.196;10.924;2024-02-16T01:11:06;8.93;;;4.63;;
8421;SDS011;4248;48.196;10.924;2024-02-16T01:13:32;9.40;;;4.80;;
8421;SDS011;4248;48.196;10.924;2024-02-16T01:15:58;6.53;;;4.03;;
8421;SDS011;4248;48.196;10.924;2024-02-16T01:18:24;6.93;;;4.10;;
8421;SDS011;4248;48.196;10.924;2024-02-16T01:20:53;8.03;;;3.93;;
8421;SDS011;4248;48.196;10.924;2024-02-16T01:23:19;7.70;;;4.00;;
8421;SDS011;4248;48.196;10.924;2024-02-16T01:25:45;9.50;;;4.30;;
8421;SDS011;4248;48.196;10.924;2024-02-16T01:28:11;9.20;;;4.53;;
8421;SDS011;4248;48.196;10.924;2024-02-16T01:30:37;5.30;;;3.40;;
8421;SDS011;4248;48.196;10.924;2024-02-16T01:33:04;6.47;;;3.87;;
8421;SDS011;4248;48.196;10.924;2024-02-16T01:35:31;6.60;;;4.40;;
8421;SDS011;4248;48.196;10.924;2024-02-16T01:37:57;8.80;;;4.20;;
8421;SDS011;4248;48.196;10.924;2024-02-16T01:40:22;6.90;;;4.50;;
8421;SDS011;4248;48.196;10.924;2024-02-16T01:42:51;7.30;;;4.20;;
8421;SDS011;4248;48.196;10.924;2024-02-16T01:45:20;7.80;;;4.57;;
8421;SDS011;4248;48.196;10.924;2024-02-16T01:47:47;6.57;;;3.87;;
8421;SDS011;4248;48.196;10.924;2024-02-16T01:50:14;7.63;;;3.70;;
8421;SDS011;4248;48.196;10.924;2024-02-16T01:52:44;6.03;;;4.40;;
8421;SDS011;4248;48.196;10.924;2024-02-16T01:55:12;10.93;;;4.63;;
8421;SDS011;4248;48.196;10.924;2024-02-16T01:57:47;7.33;;;3.63;;
8421;SDS011;4248;48.196;10.924;2024-02-16T02:00:14;7.30;;;3.70;;
8421;SDS011;4248;48.196;10.924;2024-02-16T02:02:40;7.70;;;4.63;;
8421;SDS011;4248;48.196;10.924;2024-02-16T02:05:08;6.40;;;3.90;;
8421;SDS011;4248;48.196;10.924;2024-02-16T02:07:34;7.93;;;4.47;;
8421;SDS011;4248;48.196;10.924;2024-02-16T02:10:00;6.60;;;3.90;;
8421;SDS011;4248;48.196;10.924;2024-02-16T02:12:25;9.50;;;4.50;;
8421;SDS011;4248;48.196;10.924;2024-02-16T02:14:51;7.50;;;4.20;;
8421;SDS011;4248;48.196;10.924;2024-02-16T02:17:17;10.20;;;5.13;;
8421;SDS011;4248;48.196;10.924;2024-02-16T02:19:44;7.67;;;4.83;;
8421;SDS011;4248;48.196;10.924;2024-02-16T02:22:19;8.50;;;4.73;;
8421;SDS011;4248;48.196;10.924;2024-02-16T02:24:45;7.33;;;5.10;;
8421;SDS011;4248;48.196;10.924;2024-02-16T02:27:13;9.63;;;5.73;;
8421;SDS011;4248;48.196;10.924;2024-02-16T02:29:40;10.80;;;4.90;;
8421;SDS011;4248;48.196;10.924;2024-02-16T02:32:06;7.03;;;5.00;;
8421;SDS011;4248;48.196;10.924;2024-02-16T02:34:35;7.47;;;4.27;;
8421;SDS011;4248;48.196;10.924;2024-02-16T02:37:01;6.90;;;4.47;;
8421;SDS011;4248;48.196;10.924;2024-02-16T02:39:29;8.00;;;4.77;;
8421;SDS011;4248;48.196;10.924;2024-02-16T02:41:54;7.60;;;4.40;;
8421;SDS011;4248;48.196;10.924;2024-02-16T02:44:20;10.67;;;4.23;;
8421;SDS011;4248;48.196;10.924;2024-02-16T02:46:45;6.23;;;4.50;;
8421;SDS011;4248;48.196;10.924;2024-02-16T02:49:12;7.60;;;4.60;;
8421;SDS011;4248;48.196;10.924;2024-02-16T02:51:37;12.10;;;4.63;;
8421;SDS011;4248;48.196;10.924;2024-02-16T02:54:03;7.90;;;3.23;;
8421;SDS011;4248;48.196;10.924;2024-02-16T02:56:29;6.50;;;3.93;;
8421;SDS011;4248;48.196;10.924;2024-02-16T02:58:54;7.40;;;4.87;;
8421;SDS011;4248;48.196;10.924;2024-02-16T03:01:20;7.30;;;3.67;;
8421;SDS011;4248;48.196;10.924;2024-02-16T03:03:47;7.63;;;3.53;;
8421;SDS011;4248;48.196;10.924;2024-02-16T03:06:12;8.83;;;4.10;;
8421;SDS011;4248;48.196;10.924;2024-02-16T03:08:42;10.70;;;4.77;;
8421;SDS011;4248;48.196;10.924;2024-02-16T03:11:08;5.53;;;3.60;;
8421;SDS011;4248;48.196;10.924;2024-02-16T03:13:33;5.83;;;3.50;;
8421;SDS011;4248;48.196;10.924;2024-02-16T03:15:59;9.40;;;4.60;;
8421;SDS011;4248;48.196;10.924;2024-02-16T03:18:24;7.70;;;3.57;;
8421;SDS011;4248;48.196;10.924;2024-02-16T03:20:54;4.30;;;3.40;;
8421;SDS011;4248;48.196;10.924;2024-02-16T03:23:19;5.77;;;3.53;;
8421;SDS011;4248;48.196;10.924;2024-02-16T03:25:45;5.87;;;4.00;;
8421;SDS011;4248;48.196;10.924;2024-02-16T03:28:11;5.23;;;3.40;;
8421;SDS011;4248;48.196;10.924;2024-02-16T03:30:37;6.73;;;4.27;;
8421;SDS011;4248;48.196;10.924;2024-02-16T03:33:03;6.80;;;4.13;;
8421;SDS011;4248;48.196;10.924;2024-02-16T03:35:29;13.00;;;3.80;;
8421;SDS011;4248;48.196;10.924;2024-02-16T03:37:55;12.73;;;4.20;;
8421;SDS011;4248;48.196;10.924;2024-02-16T03:40:22;6.30;;;3.90;;
8421;SDS011;4248;48.196;10.924;2024-02-16T03:42:49;7.40;;;3.70;;
8421;SDS011;4248;48.196;10.924;2024-02-16T03:45:15;7.30;;;4.47;;
8421;SDS011;4248;48.196;10.924;2024-02-16T03:47:41;6.83;;;3.87;;
8421;SDS011;4248;48.196;10.924;2024-02-16T03:50:07;9.33;;;4.13;;
8421;SDS011;4248;48.196;10.924;2024-02-16T03:52:33;5.77;;;3.57;;
8421;SDS011;4248;48.196;10.924;2024-02-16T03:54:58;8.57;;;4.80;;
8421;SDS011;4248;48.196;10.924;2024-02-16T03:57:24;5.83;;;4.03;;
8421;SDS011;4248;48.196;10.924;2024-02-16T03:59:50;6.50;;;4.00;;
8421;SDS011;4248;48.196;10.924;2024-02-16T04:02:15;8.03;;;5.67;;
8421;SDS011;4248;48.196;10.924;2024-02-16T04:04:42;10.33;;;4.60;;
8421;SDS011;4248;48.196;10.924;2024-02-16T04:07:07;7.03;;;4.27;;
8421;SDS011;4248;48.196;10.924;2024-02-16T04:09:34;7.97;;;4.40;;
8421;SDS011;4248;48.196;10.924;2024-02-16T04:12:00;6.63;;;4.23;;
8421;SDS011;4248;48.196;10.924;2024-02-16T04:14:27;6.00;;;3.43;;
8421;SDS011;4248;48.196;10.924;2024-02-16T04:16:55;5.90;;;3.67;;
8421;SDS011;4248;48.196;10.924;2024-02-16T04:19:25;11.43;;;3.97;;
8421;SDS011;4248;48.196;10.924;2024-02-16T04:22:05;8.07;;;3.70;;
8421;SDS011;4248;48.196;10.924;2024-02-16T04:24:34;10.00;;;3.90;;
8421;SDS011;4248;48.196;10.924;2024-02-16T04:27:02;7.07;;;3.90;;
8421;SDS011;4248;48.196;10.924;2024-02-16T04:29:35;5.23;;;3.27;;
8421;SDS011;4248;48.196;10.924;2024-02-16T04:32:09;4.90;;;3.13;;
8421;SDS011;4248;48.196;10.924;2024-02-16T04:34:51;7.23;;;4.00;;
8421;SDS011;4248;48.196;10.924;2024-02-16T04:37:25;6.67;;;4.03;;
8421;SDS011;4248;48.196;10.924;2024-02-16T04:39:51;6.37;;;3.60;;
8421;SDS011;4248;48.196;10.924;2024-02-16T04:42:17;5.60;;;3.70;;
8421;SDS011;4248;48.196;10.924;2024-02-16T04:44:43;8.50;;;3.93;;
8421;SDS011;4248;48.196;10.924;2024-02-16T04:47:08;8.20;;;5.10;;
8421;SDS011;4248;48.196;10.924;2024-02-16T04:49:34;5.90;;;3.77;;
8421;SDS011;4248;48.196;10.924;2024-02-16T04:52:00;5.50;;;3.40;;
8421;SDS011;4248;48.196;10.924;2024-02-16T04:54:26;7.47;;;4.13;;
8421;SDS011;4248;48.196;10.924;2024-02-16T04:56:51;6.67;;;3.30;;
8421;SDS011;4248;48.196;10.924;2024-02-16T04:59:17;5.37;;;3.43;;
8421;SDS011;4248;48.196;10.924;2024-02-16T05:01:45;6.40;;;3.83;;
8421;SDS011;4248;48.196;10.924;2024-02-16T05:04:16;9.23;;;4.23;;
8421;SDS011;4248;48.196;10.924;2024-02-16T05:06:45;6.20;;;3.70;;
8421;SDS011;4248;48.196;10.924;2024-02-16T05:09:15;6.10;;;3.70;;
8421;SDS011;4248;48.196;10.924;2024-02-16T05:11:44;7.73;;;3.83;;
8421;SDS011;4248;48.196;10.924;2024-02-16T05:14:11;7.23;;;4.13;;
8421;SDS011;4248;48.196;10.924;2024-02-16T05:16:45;7.13;;;3.70;;
8421;SDS011;4248;48.196;10.924;2024-02-16T05:19:12;7.17;;;4.20;;
8421;SDS011;4248;48.196;10.924;2024-02-16T05:21:38;5.23;;;3.77;;
8421;SDS011;4248;48.196;10.924;2024-02-16T05:24:04;6.90;;;4.60;;
8421;SDS011;4248;48.196;10.924;2024-02-16T05:26:30;7.00;;;4.07;;
8421;SDS011;4248;48.196;10.924;2024-02-16T05:28:55;6.07;;;3.83;;
8421;SDS011;4248;48.196;10.924;2024-02-16T05:31:21;6.90;;;3.60;;
8421;SDS011;4248;48.196;10.924;2024-02-16T05:33:50;6.93;;;4.20;;
8421;SDS011;4248;48.196;10.924;2024-02-16T05:36:20;7.53;;;4.37;;
8421;SDS011;4248;48.196;10.924;2024-02-16T05:38:49;7.70;;;4.30;;
8421;SDS011;4248;48.196;10.924;2024-02-16T05:41:16;12.17;;;4.50;;
8421;SDS011;4248;48.196;10.924;2024-02-16T05:43:45;9.50;;;4.73;;
8421;SDS011;4248;48.196;10.924;2024-02-16T05:46:14;8.70;;;4.87;;
8421;SDS011;4248;48.196;10.924;2024-02-16T05:48:41;16.03;;;4.47;;
8421;SDS011;4248;48.196;10.924;2024-02-16T05:51:07;8.00;;;4.70;;
8421;SDS011;4248;48.196;10.924;2024-02-16T05:53:33;8.63;;;5.00;;
8421;SDS011;4248;48.196;10.924;2024-02-16T05:55:59;8.17;;;4.80;;
8421;SDS011;4248;48.196;10.924;2024-02-16T05:58:26;10.17;;;5.73;;
8421;SDS011;4248;48.196;10.924;2024-02-16T06:00:51;13.90;;;4.73;;
8421;SDS011;4248;48.196;10.924;2024-02-16T06:03:18;7.37;;;4.40;;
8421;SDS011;4248;48.196;10.924;2024-02-16T06:05:43;10.73;;;4.13;;
8421;SDS011;4248;48.196;10.924;2024-02-16T06:08:12;9.37;;;4.17;;
8421;SDS011;4248;48.196;10.924;2024-02-16T06:10:42;8.50;;;3.77;;
8421;SDS011;4248;48.196;10.924;2024-02-16T06:13:08;6.97;;;4.07;;
8421;SDS011;4248;48.196;10.924;2024-02-16T06:15:34;10.73;;;3.70;;
8421;SDS011;4248;48.196;10.924;2024-02-16T06:18:00;6.83;;;4.60;;
8421;SDS011;4248;48.196;10.924;2024-02-16T06:20:26;29.70;;;12.33;;
8421;SDS011;4248;48.196;10.924;2024-02-16T06:22:51;22.23;;;11.13;;
8421;SDS011;4248;48.196;10.924;2024-02-16T06:25:17;32.83;;;11.73;;
8421;SDS011;4248;48.196;10.924;2024-02-16T06:27:43;33.80;;;12.73;;
8421;SDS011;4248;48.196;10.924;2024-02-16T06:30:09;22.80;;;10.43;;
8421;SDS011;4248;48.196;10.924;2024-02-16T06:32:38;11.47;;;6.30;;
8421;SDS011;4248;48.196;10.924;2024-02-16T06:35:07;8.37;;;4.60;;
8421;SDS011;4248;48.196;10.924;2024-02-16T06:37:33;17.20;;;7.20;;
8421;SDS011;4248;48.196;10.924;2024-02-16T06:39:59;13.23;;;7.27;;
8421;SDS011;4248;48.196;10.924;2024-02-16T06:42:24;17.67;;;8.93;;
8421;SDS011;4248;48.196;10.924;2024-02-16T06:44:50;22.33;;;10.33;;
8421;SDS011;4248;48.196;10.924;2024-02-16T06:47:15;11.87;;;6.30;;
8421;SDS011;4248;48.196;10.924;2024-02-16T06:49:41;16.93;;;6.07;;
8421;SDS011;4248;48.196;10.924;2024-02-16T06:52:07;11.90;;;4.67;;
8421;SDS011;4248;48.196;10.924;2024-02-16T06:54:34;6.77;;;4.50;;
8421;SDS011;4248;48.196;10.924;2024-02-16T06:57:00;6.87;;;3.80;;
8421;SDS011;4248;48.196;10.924;2024-02-16T06:59:26;12.23;;;4.23;;
8421;SDS011;4248;48.196;10.924;2024-02-16T07:01:52;7.77;;;3.77;;
8421;SDS011;4248;48.196;10.924;2024-02-16T07:04:18;8.00;;;3.50;;
8421;SDS011;4248;48.196;10.924;2024-02-16T07:06:43;10.03;;;3.77;;
8421;SDS011;4248;48.196;10.924;2024-02-16T07:09:09;8.17;;;3.60;;
8421;SDS011;4248;48.196;10.924;2024-02-16T07:11:35;10.73;;;3.70;;
8421;SDS011;4248;48.196;10.924;2024-02-16T07:14:01;11.70;;;3.30;;
8421;SDS011;4248;48.196;10.924;2024-02-16T07:16:27;6.87;;;3.70;;
8421;SDS011;4248;48.196;10.924;2024-02-16T07:18:53;8.20;;;3.10;;
8421;SDS011;4248;48.196;10.924;2024-02-16T07:21:19;5.40;;;2.80;;
8421;SDS011;4248;48.196;10.924;2024-02-16T07:23:47;8.10;;;2.90;;
8421;SDS011;4248;48.196;10.924;2024-02-16T07:26:13;16.10;;;3.83;;
8421;SDS011;4248;48.196;10.924;2024-02-16T07:28:39;5.47;;;3.20;;
8421;SDS011;4248;48.196;10.924;2024-02-16T07:31:05;9.57;;;3.80;;
8421;SDS011;4248;48.196;10.924;2024-02-16T07:33:31;5.60;;;3.70;;
8421;SDS011;4248;48.196;10.924;2024-02-16T07:35:57;6.77;;;3.20;;
8421;SDS011;4248;48.196;10.924;2024-02-16T07:38:22;8.17;;;3.70;;
8421;SDS011;4248;48.196;10.924;2024-02-16T07:40:48;6.73;;;3.50;;
8421;SDS011;4248;48.196;10.924;2024-02-16T07:43:15;11.33;;;3.60;;
8421;SDS011;4248;48.196;10.924;2024-02-16T07:45:42;6.67;;;3.70;;
8421;SDS011;4248;48.196;10.924;2024-02-16T07:48:08;5.43;;;3.30;;
8421;SDS011;4248;48.196;10.924;2024-02-16T07:50:34;5.73;;;3.07;;
8421;SDS011;4248;48.196;10.924;2024-02-16T07:52:59;5.77;;;3.40;;
8421;SDS011;4248;48.196;10.924;2024-02-16T07:55:26;4.40;;;2.90;;
8421;SDS011;4248;48.196;10.924;2024-02-16T07:57:52;7.97;;;4.00;;
8421;SDS011;4248;48.196;10.924;2024-02-16T08:00:18;10.43;;;4.10;;
8421;SDS011;4248;48.196;10.924;2024-02-16T08:02:44;6.97;;;3.87;;
8421;SDS011;4248;48.196;10.924;2024-02-16T08:05:13;7.07;;;3.50;;
8421;SDS011;4248;48.196;10.924;2024-02-16T08:07:40;6.53;;;3.30;;
8421;SDS011;4248;48.196;10.924;2024-02-16T08:10:09;11.67;;;4.50;;
8421;SDS011;4248;48.196;10.924;2024-02-16T08:12:36;5.27;;;3.00;;
8421;SDS011;4248;48.196;10.924;2024-02-16T08:15:08;11.57;;;3.53;;
8421;SDS011;4248;48.196;10.924;2024-02-16T08:17:35;7.37;;;4.30;;
8421;SDS011;4248;48.196;10.924;2024-02-16T08:20:02;5.10;;;3.40;;
8421;SDS011;4248;48.196;10.924;2024-02-16T08:22:28;5.63;;;3.37;;
8421;SDS011;4248;48.196;10.924;2024-02-16T08:24:54;6.47;;;3.53;;
8421;SDS011;4248;48.196;10.924;2024-02-16T08:27:19;6.77;;;3.93;;
8421;SDS011;4248;48.196;10.924;2024-02-16T08:29:45;17.70;;;10.47;;
8421;SDS011;4248;48.196;10.924;2024-02-16T08:32:11;10.40;;;6.03;;
8421;SDS011;4248;48.196;10.924;2024-02-16T08:34:37;6.97;;;3.90;;
8421;SDS011;4248;48.196;10.924;2024-02-16T08:37:03;6.40;;;3.80;;
8421;SDS011;4248;48.196;10.924;2024-02-16T08:39:30;6.93;;;3.60;;
8421;SDS011;4248;48.196;10.924;2024-02-16T08:41:59;6.10;;;3.40;;
8421;SDS011;4248;48.196;10.924;2024-02-16T08:44:25;8.60;;;3.63;;
8421;SDS011;4248;48.196;10.924;2024-02-16T08:46:51;9.23;;;4.20;;
8421;SDS011;4248;48.196;10.924;2024-02-16T08:49:18;6.90;;;4.57;;
8421;SDS011;4248;48.196;10.924;2024-02-16T08:51:44;13.23;;;4.80;;
8421;SDS011;4248;48.196;10.924;2024-02-16T08:54:10;6.70;;;4.30;;
8421;SDS011;4248;48.196;10.924;2024-02-16T08:56:35;9.30;;;4.30;;
8421;SDS011;4248;48.196;10.924;2024-02-16T08:59:04;8.30;;;4.50;;
8421;SDS011;4248;48.196;10.924;2024-02-16T09:01:32;7.70;;;3.30;;
8421;SDS011;4248;48.196;10.924;2024-02-16T09:03:59;10.23;;;2.97;;
8421;SDS011;4248;48.196;10.924;2024-02-16T09:06:25;8.43;;;3.07;;
8421;SDS011;4248;48.196;10.924;2024-02-16T09:08:52;4.97;;;2.70;;
8421;SDS011;4248;48.196;10.924;2024-02-16T09:11:17;5.33;;;2.77;;
8421;SDS011;4248;48.196;10.924;2024-02-16T09:13:44;19.67;;;11.30;;
8421;SDS011;4248;48.196;10.924;2024-02-16T09:16:09;10.70;;;3.63;;
8421;SDS011;4248;48.196;10.924;2024-02-16T09:18:35;4.93;;;2.40;;
8421;SDS011;4248;48.196;10.924;2024-02-16T09:21:04;5.50;;;2.97;;
8421;SDS011;4248;48.196;10.924;2024-02-16T09:23:31;4.50;;;2.60;;
8421;SDS011;4248;48.196;10.924;2024-02-16T09:25:57;9.77;;;3.30;;
8421;SDS011;4248;48.196;10.924;2024-02-16T09:28:24;5.10;;;2.93;;
8421;SDS011;4248;48.196;10.924;2024-02-16T09:30:49;5.17;;;2.80;;
8421;SDS011;4248;48.196;10.924;2024-02-16T09:33:15;5.20;;;2.60;;
8421;SDS011;4248;48.196;10.924;2024-02-16T09:35:41;5.67;;;2.90;;
8421;SDS011;4248;48.196;10.924;2024-02-16T09:38:07;4.00;;;2.13;;
8421;SDS011;4248;48.196;10.924;2024-02-16T09:40:35;6.10;;;2.60;;
8421;SDS011;4248;48.196;10.924;2024-02-16T09:43:01;5.03;;;2.47;;
8421;SDS011;4248;48.196;10.924;2024-02-16T09:45:27;6.60;;;2.30;;
8421;SDS011;4248;48.196;10.924;2024-02-16T09:47:54;11.03;;;3.20;;
8421;SDS011;4248;48.196;10.924;2024-02-16T09:50:20;3.43;;;1.70;;
8421;SDS011;4248;48.196;10.924;2024-02-16T09:52:47;4.67;;;2.13;;
8421;SDS011;4248;48.196;10.924;2024-02-16T09:55:14;4.00;;;2.03;;
8421;SDS011;4248;48.196;10.924;2024-02-16T09:57:41;4.53;;;2.13;;
8421;SDS011;4248;48.196;10.924;2024-02-16T10:00:08;4.47;;;2.23;;
8421;SDS011;4248;48.196;10.924;2024-02-16T10:02:40;5.70;;;2.53;;
8421;SDS011;4248;48.196;10.924;2024-02-16T10:05:13;4.70;;;2.00;;
8421;SDS011;4248;48.196;10.924;2024-02-16T10:07:40;3.90;;;2.20;;
8421;SDS011;4248;48.196;10.924;2024-02-16T10:10:06;3.37;;;1.73;;
8421;SDS011;4248;48.196;10.924;2024-02-16T10:12:44;4.53;;;2.10;;
8421;SDS011;4248;48.196;10.924;2024-02-16T10:15:10;4.40;;;1.90;;
8421;SDS011;4248;48.196;10.924;2024-02-16T10:17:36;7.90;;;2.30;;
8421;SDS011;4248;48.196;10.924;2024-02-16T10:20:02;4.43;;;2.17;;
8421;SDS011;4248;48.196;10.924;2024-02-16T10:22:31;3.80;;;1.83;;
8421;SDS011;4248;48.196;10.924;2024-02-16T10:25:06;4.70;;;1.70;;
8421;SDS011;4248;48.196;10.924;2024-02-16T10:27:36;4.30;;;1.90;;
8421;SDS011;4248;48.196;10.924;2024-02-16T10:30:02;4.23;;;2.13;;
8421;SDS011;4248;48.196;10.924;2024-02-16T10:32:35;6.27;;;2.60;;
8421;SDS011;4248;48.196;10.924;2024-02-16T10:35:03;4.20;;;2.30;;
8421;SDS011;4248;48.196;10.924;2024-02-16T10:37:31;5.03;;;2.37;;
8421;SDS011;4248;48.196;10.924;2024-02-16T10:39:57;4.30;;;2.27;;
8421;SDS011;4248;48.196;10.924;2024-02-16T10:42:26;10.83;;;2.20;;
8421;SDS011;4248;48.196;10.924;2024-02-16T10:44:52;10.83;;;2.30;;
8421;SDS011;4248;48.196;10.924;2024-02-16T10:47:18;5.57;;;2.10;;
8421;SDS011;4248;48.196;10.924;2024-02-16T10:49:44;3.93;;;1.83;;
8421;SDS011;4248;48.196;10.924;2024-02-16T10:52:10;4.47;;;2.40;;
8421;SDS011;4248;48.196;10.924;2024-02-16T10:54:37;5.47;;;2.10;;
8421;SDS011;4248;48.196;10.924;2024-02-16T10:57:08;7.13;;;2.70;;
8421;SDS011;4248;48.196;10.924;2024-02-16T10:59:46;7.10;;;2.53;;
8421;SDS011;4248;48.196;10.924;2024-02-16T11:02:13;6.60;;;2.10;;
8421;SDS011;4248;48.196;10.924;2024-02-16T11:04:39;6.00;;;2.67;;
8421;SDS011;4248;48.196;10.924;2024-02-16T11:07:11;4.63;;;2.40;;
8421;SDS011;4248;48.196;10.924;2024-02-16T11:09:40;4.97;;;2.27;;
8421;SDS011;4248;48.196;10.924;2024-02-16T11:12:06;6.47;;;2.03;;
8421;SDS011;4248;48.196;10.924;2024-02-16T11:14:39;4.50;;;2.37;;
8421;SDS011;4248;48.196;10.924;2024-02-16T11:17:13;6.20;;;2.50;;
8421;SDS011;4248;48.196;10.924;2024-02-16T11:19:41;6.77;;;2.50;;
8421;SDS011;4248;48.196;10.924;2024-02-16T11:22:08;4.93;;;2.63;;
8421;SDS011;4248;48.196;10.924;2024-02-16T11:24:35;6.63;;;2.70;;
8421;SDS011;4248;48.196;10.924;2024-02-16T11:27:02;3.90;;;2.20;;
8421;SDS011;4248;48.196;10.924;2024-02-16T11:29:33;4.20;;;2.27;;
8421;SDS011;4248;48.196;10.924;2024-02-16T11:32:00;4.70;;;2.20;;
8421;SDS011;4248;48.196;10.924;2024-02-16T11:34:49;5.00;;;2.40;;
8421;SDS011;4248;48.196;10.924;2024-02-16T11:37:15;5.33;;;2.87;;
8421;SDS011;4248;48.196;10.924;2024-02-16T11:39:41;7.30;;;3.10;;
8421;SDS011;4248;48.196;10.924;2024-02-16T11:42:09;5.40;;;2.60;;
8421;SDS011;4248;48.196;10.924;2024-02-16T11:44:37;5.60;;;2.80;;
8421;SDS011;4248;48.196;10.924;2024-02-16T11:47:07;4.60;;;2.50;;
8421;SDS011;4248;48.196;10.924;2024-02-16T11:49:37;4.53;;;2.17;;
8421;SDS011;4248;48.196;10.924;2024-02-16T11:52:04;8.07;;;3.13;;
8421;SDS011;4248;48.196;10.924;2024-02-16T11:54:30;6.70;;;2.80;;
8421;SDS011;4248;48.196;10.924;2024-02-16T11:56:59;6.10;;;2.57;;
8421;SDS011;4248;48.196;10.924;2024-02-16T11:59:25;7.97;;;2.20;;
8421;SDS011;4248;48.196;10.924;2024-02-16T12:01:51;4.63;;;2.33;;
8421;SDS011;4248;48.196;10.924;2024-02-16T12:06:49;7.27;;;2.70;;
8421;SDS011;4248;48.196;10.924;2024-02-16T12:09:22;4.40;;;2.20;;
8421;SDS011;4248;48.196;10.924;2024-02-16T12:11:49;6.17;;;2.60;;
8421;SDS011;4248;48.196;10.924;2024-02-16T12:14:19;4.33;;;2.50;;
8421;SDS011;4248;48.196;10.924;2024-02-16T12:16:48;6.00;;;2.40;;
8421;SDS011;4248;48.196;10.924;2024-02-16T12:19:15;5.20;;;2.73;;
8421;SDS011;4248;48.196;10.924;2024-02-16T12:21:43;6.73;;;2.80;;
8421;SDS011;4248;48.196;10.924;2024-02-16T12:24:09;6.80;;;2.90;;
8421;SDS011;4248;48.196;10.924;2024-02-16T12:26:35;6.40;;;2.30;;
8421;SDS011;4248;48.196;10.924;2024-02-16T12:29:02;6.53;;;2.80;;
8421;SDS011;4248;48.196;10.924;2024-02-16T12:31:29;4.83;;;2.43;;
8421;SDS011;4248;48.196;10.924;2024-02-16T12:33:55;6.53;;;2.47;;
8421;SDS011;4248;48.196;10.924;2024-02-16T12:36:21;8.37;;;2.47;;
8421;SDS011;4248;48.196;10.924;2024-02-16T12:38:48;5.23;;;2.50;;
8421;SDS011;4248;48.196;10.924;2024-02-16T12:41:14;6.33;;;2.77;;
8421;SDS011;4248;48.196;10.924;2024-02-16T12:43:40;6.00;;;2.73;;
8421;SDS011;4248;48.196;10.924;2024-02-16T12:46:06;7.90;;;2.50;;
8421;SDS011;4248;48.196;10.924;2024-02-16T12:48:32;9.30;;;2.07;;
8421;SDS011;4248;48.196;10.924;2024-02-16T12:50:57;6.33;;;2.37;;
8421;SDS011;4248;48.196;10.924;2024-02-16T12:53:23;10.70;;;3.03;;
8421;SDS011;4248;48.196;10.924;2024-02-16T12:55:55;5.03;;;2.17;;
8421;SDS011;4248;48.196;10.924;2024-02-16T12:58:21;7.47;;;2.23;;
8421;SDS011;4248;48.196;10.924;2024-02-16T13:00:46;4.93;;;2.57;;
8421;SDS011;4248;48.196;10.924;2024-02-16T13:03:12;4.30;;;2.30;;
8421;SDS011;4248;48.196;10.924;2024-02-16T13:05:38;5.13;;;1.90;;
8421;SDS011;4248;48.196;10.924;2024-02-16T13:08:04;4.90;;;2.40;;
8421;SDS011;4248;48.196;10.924;2024-02-16T13:10:30;8.37;;;2.67;;
8421;SDS011;4248;48.196;10.924;2024-02-16T13:12:55;5.33;;;2.73;;
8421;SDS011;4248;48.196;10.924;2024-02-16T13:15:21;6.70;;;2.60;;
8421;SDS011;4248;48.196;10.924;2024-02-16T13:17:47;6.80;;;2.80;;
8421;SDS011;4248;48.196;10.924;2024-02-16T13:20:13;6.67;;;2.30;;
8421;SDS011;4248;48.196;10.924;2024-02-16T13:22:38;7.80;;;2.80;;
8421;SDS011;4248;48.196;10.924;2024-02-16T13:25:05;7.83;;;2.43;;
8421;SDS011;4248;48.196;10.924;2024-02-16T13:27:32;7.20;;;2.70;;
8421;SDS011;4248;48.196;10.924;2024-02-16T13:29:59;5.73;;;2.70;;
8421;SDS011;4248;48.196;10.924;2024-02-16T13:32:25;5.53;;;2.30;;
8421;SDS011;4248;48.196;10.924;2024-02-16T13:34:51;5.57;;;2.23;;
8421;SDS011;4248;48.196;10.924;2024-02-16T13:37:16;6.57;;;2.30;;
8421;SDS011;4248;48.196;10.924;2024-02-16T13:39:42;5.20;;;2.50;;
8421;SDS011;4248;48.196;10.924;2024-02-16T13:42:08;6.37;;;2.60;;
8421;SDS011;4248;48.196;10.924;2024-02-16T13:44:35;7.60;;;2.27;;
8421;SDS011;4248;48.196;10.924;2024-02-16T13:47:01;10.90;;;2.37;;
8421;SDS011;4248;48.196;10.924;2024-02-16T13:49:27;6.87;;;2.30;;
8421;SDS011;4248;48.196;10.924;2024-02-16T13:51:53;8.27;;;2.17;;
8421;SDS011;4248;48.196;10.924;2024-02-16T13:54:19;6.20;;;2.07;;
8421;SDS011;4248;48.196;10.924;2024-02-16T13:56:49;6.43;;;2.23;;
8421;SDS011;4248;48.196;10.924;2024-02-16T13:59:15;3.17;;;1.67;;
8421;SDS011;4248;48.196;10.924;2024-02-16T14:01:40;4.63;;;1.97;;
8421;SDS011;4248;48.196;10.924;2024-02-16T14:04:06;7.00;;;2.60;;
8421;SDS011;4248;48.196;10.924;2024-02-16T14:06:32;7.53;;;2.90;;
8421;SDS011;4248;48.196;10.924;2024-02-16T14:08:58;8.27;;;2.40;;
8421;SDS011;4248;48.196;10.924;2024-02-16T14:11:23;9.00;;;3.00;;
8421;SDS011;4248;48.196;10.924;2024-02-16T14:13:49;12.63;;;3.80;;
8421;SDS011;4248;48.196;10.924;2024-02-16T14:16:18;5.93;;;3.10;;
8421;SDS011;4248;48.196;10.924;2024-02-16T14:18:44;6.53;;;2.97;;
8421;SDS011;4248;48.196;10.924;2024-02-16T14:21:16;6.67;;;3.00;;
8421;SDS011;4248;48.196;10.924;2024-02-16T14:23:41;6.37;;;3.07;;
8421;SDS011;4248;48.196;10.924;2024-02-16T14:26:08;8.10;;;3.00;;
8421;SDS011;4248;48.196;10.924;2024-02-16T14:28:35;6.43;;;2.80;;
8421;SDS011;4248;48.196;10.924;2024-02-16T14:31:00;7.83;;;2.70;;
8421;SDS011;4248;48.196;10.924;2024-02-16T14:33:27;6.70;;;3.20;;
8421;SDS011;4248;48.196;10.924;2024-02-16T14:35:53;6.90;;;2.30;;
8421;SDS011;4248;48.196;10.924;2024-02-16T14:38:19;5.70;;;2.67;;
8421;SDS011;4248;48.196;10.924;2024-02-16T14:40:44;5.50;;;2.23;;
8421;SDS011;4248;48.196;10.924;2024-02-16T14:43:10;7.67;;;2.37;;
8421;SDS011;4248;48.196;10.924;2024-02-16T14:45:36;7.33;;;2.20;;
8421;SDS011;4248;48.196;10.924;2024-02-16T14:48:03;6.10;;;2.80;;
8421;SDS011;4248;48.196;10.924;2024-02-16T14:50:29;6.50;;;3.07;;
8421;SDS011;4248;48.196;10.924;2024-02-16T14:52:55;4.77;;;2.10;;
8421;SDS011;4248;48.196;10.924;2024-02-16T14:55:21;8.83;;;2.80;;
8421;SDS011;4248;48.196;10.924;2024-02-16T14:57:47;10.53;;;2.73;;